Time;durP1;ratioP1;P1;durP2;ratioP2;P2;SDS_P1;SDS_P2;PMS_P1;PMS_P2;Temp;Humidity;BMP_temperature;BMP_pressure;BME280_temperature;BME280_humidity;BME280_pressure;Samples;Min_cycle;Max_cycle;Signal;HPM_P1;HPM_P2
2022/09/18 00:01:08;;;;;;;11.20;2.10;;;8.90;99.90;;;;;;4127949;28;20599;-77
2022/09/18 00:03:11;;;;;;;7.20;1.77;;;8.90;99.90;;;;;;4127852;28;20877;-77
2022/09/18 00:05:13;;;;;;;11.27;2.73;;;8.80;99.90;;;;;;4127770;28;20458;-77
2022/09/18 00:07:15;;;;;;;12.97;3.60;;;8.90;99.90;;;;;;4128293;28;20471;-77
2022/09/18 00:09:17;;;;;;;15.77;3.73;;;8.90;99.90;;;;;;4127529;28;20484;-76
2022/09/18 00:11:21;;;;;;;9.23;4.00;;;8.90;99.90;;;;;;4126893;28;20526;-76
2022/09/18 00:13:23;;;;;;;21.57;3.67;;;8.90;99.90;;;;;;4127408;28;20474;-77
2022/09/18 00:15:24;;;;;;;15.50;2.93;;;8.90;99.90;;;;;;4127242;28;20542;-76
2022/09/18 00:17:26;;;;;;;8.07;2.77;;;8.90;99.90;;;;;;4126438;28;20462;-77
2022/09/18 00:19:29;;;;;;;12.10;2.53;;;8.90;99.90;;;;;;4126469;28;20448;-77
2022/09/18 00:21:34;;;;;;;9.97;3.03;;;8.90;99.90;;;;;;4126629;28;20568;-76
2022/09/18 00:23:36;;;;;;;11.33;2.70;;;8.90;99.90;;;;;;4126789;28;20455;-77
2022/09/18 00:25:38;;;;;;;14.37;2.70;;;8.90;99.90;;;;;;4127019;28;20978;-76
2022/09/18 00:27:40;;;;;;;10.47;2.67;;;8.80;99.90;;;;;;4127584;28;20960;-76
2022/09/18 00:29:43;;;;;;;13.00;2.77;;;8.90;99.90;;;;;;4127977;28;20491;-77
2022/09/18 00:31:45;;;;;;;11.30;2.30;;;8.90;99.90;;;;;;4126566;28;20487;-76
2022/09/18 00:46:13;;;;;;;17.27;4.77;;;8.90;99.90;;;;;;4229386;27;20438;-77
2022/09/18 00:48:15;;;;;;;14.10;3.73;;;8.80;99.90;;;;;;4229649;27;20477;-77
2022/09/18 00:50:21;;;;;;;12.60;3.23;;;8.80;99.90;;;;;;4228621;28;20960;-77
2022/09/18 00:52:27;;;;;;;12.33;3.13;;;8.80;99.90;;;;;;4227865;28;20557;-77
2022/09/18 00:54:33;;;;;;;12.23;3.60;;;8.90;99.90;;;;;;4229032;27;20454;-77
2022/09/18 00:56:35;;;;;;;10.70;2.90;;;8.80;99.90;;;;;;4229390;27;20468;-77
2022/09/18 00:58:37;;;;;;;10.27;2.60;;;8.80;99.90;;;;;;4226128;28;20582;-76
2022/09/18 01:00:38;;;;;;;9.77;2.47;;;8.80;99.90;;;;;;4228234;28;20473;-77
2022/09/18 01:02:42;;;;;;;8.83;2.50;;;8.80;99.90;;;;;;4230328;27;20453;-77
2022/09/18 01:04:44;;;;;;;18.07;3.10;;;8.80;99.90;;;;;;4230693;27;20457;-77
2022/09/18 01:06:50;;;;;;;17.60;3.73;;;8.80;99.90;;;;;;4229551;28;20466;-77
2022/09/18 01:09:03;;;;;;;9.77;2.90;;;8.80;99.90;;;;;;4200404;28;20870;-77
2022/09/18 01:11:18;;;;;;;13.23;2.90;;;8.80;99.90;;;;;;4206171;28;20476;-77
2022/09/18 01:13:30;;;;;;;14.30;2.90;;;8.80;99.90;;;;;;4231422;27;20537;-77
2022/09/18 01:15:41;;;;;;;10.53;2.70;;;8.80;99.90;;;;;;4228140;28;20446;-77
2022/09/18 01:17:49;;;;;;;11.17;2.97;;;8.80;99.90;;;;;;4202933;28;20523;-78
2022/09/18 01:20:26;;;;;;;15.87;2.67;;;8.80;99.90;;;;;;4228715;28;20442;-78
2022/09/18 01:22:52;;;;;;;9.20;2.23;;;8.80;99.90;;;;;;4227194;28;20454;-77
2022/09/18 01:25:19;;;;;;;11.07;2.50;;;8.80;99.90;;;;;;4227891;28;20454;-76
2022/09/18 01:27:30;;;;;;;9.67;2.47;;;8.80;99.90;;;;;;4228601;28;20951;-77
2022/09/18 01:29:43;;;;;;;9.50;2.30;;;8.70;99.90;;;;;;4227585;27;20485;-79
2022/09/18 01:31:50;;;;;;;8.27;2.90;;;8.70;99.90;;;;;;4229399;27;20501;-76
2022/09/18 01:33:58;;;;;;;15.90;2.83;;;8.80;99.90;;;;;;4229503;27;20536;-78
2022/09/18 01:36:05;;;;;;;8.80;2.57;;;8.80;99.90;;;;;;4212631;28;20466;-77
2022/09/18 01:38:12;;;;;;;8.33;2.60;;;8.80;99.90;;;;;;4228990;28;20442;-77
2022/09/18 01:40:18;;;;;;;10.73;2.20;;;8.80;99.90;;;;;;4227260;28;20488;-78
2022/09/18 01:42:24;;;;;;;10.97;2.00;;;8.70;99.90;;;;;;4230094;28;20475;-77
2022/09/18 01:44:29;;;;;;;15.70;2.60;;;8.80;99.90;;;;;;4210150;28;20985;-77
2022/09/18 01:46:37;;;;;;;15.10;2.40;;;8.70;99.90;;;;;;4228512;28;20458;-76
2022/09/18 01:48:45;;;;;;;15.00;2.40;;;8.70;99.90;;;;;;4209945;28;20869;-76
2022/09/18 01:50:53;;;;;;;8.93;2.10;;;8.70;99.90;;;;;;4227413;28;20906;-77
2022/09/18 01:52:59;;;;;;;11.27;2.83;;;8.70;99.90;;;;;;4228260;28;20453;-77
2022/09/18 01:55:04;;;;;;;8.87;2.27;;;8.70;99.90;;;;;;4229004;28;20464;-77
2022/09/18 01:57:10;;;;;;;6.97;2.37;;;8.70;99.90;;;;;;4228523;28;20468;-77
2022/09/18 01:59:17;;;;;;;17.70;2.50;;;8.70;99.90;;;;;;4228950;28;21017;-76
2022/09/18 02:01:21;;;;;;;10.10;2.10;;;8.70;99.90;;;;;;4228130;28;20508;-77
2022/09/18 02:03:28;;;;;;;6.23;2.10;;;8.70;99.90;;;;;;4230645;28;20825;-76
2022/09/18 02:05:35;;;;;;;9.57;2.33;;;8.70;99.90;;;;;;4230613;28;20468;-76
2022/09/18 02:07:46;;;;;;;11.60;2.30;;;8.70;99.90;;;;;;4229570;28;20820;-77
2022/09/18 02:09:48;;;;;;;11.57;2.40;;;8.70;99.90;;;;;;4227482;28;20493;-77
2022/09/18 02:11:55;;;;;;;9.47;2.27;;;8.70;99.90;;;;;;4229773;28;20860;-76
2022/09/18 02:14:04;;;;;;;11.10;2.67;;;8.70;99.90;;;;;;4228101;28;20461;-78
2022/09/18 02:16:12;;;;;;;9.90;2.67;;;8.70;99.90;;;;;;4209445;28;20454;-77
2022/09/18 02:18:18;;;;;;;8.33;2.40;;;8.80;99.90;;;;;;4227793;28;20434;-77
2022/09/18 02:20:24;;;;;;;9.43;2.20;;;8.70;99.90;;;;;;4228858;28;20458;-76
2022/09/18 02:22:31;;;;;;;21.67;2.93;;;8.70;99.90;;;;;;4230074;28;20469;-76
2022/09/18 02:24:36;;;;;;;10.77;2.43;;;8.70;99.90;;;;;;4229558;28;20461;-77
2022/09/18 02:26:40;;;;;;;15.83;2.07;;;8.70;99.90;;;;;;4226965;28;20438;-76
2022/09/18 02:28:44;;;;;;;9.57;2.10;;;8.70;99.90;;;;;;4229152;28;20465;-77
2022/09/18 02:30:46;;;;;;;5.70;2.20;;;8.70;99.90;;;;;;4227774;28;20442;-79
2022/09/18 02:32:47;;;;;;;10.53;2.27;;;8.70;99.90;;;;;;4208163;28;20447;-78
2022/09/18 02:34:49;;;;;;;8.80;2.20;;;8.70;99.90;;;;;;4228270;28;20461;-78
2022/09/18 02:37:07;;;;;;;12.33;2.40;;;8.70;99.90;;;;;;4227362;28;21201;-76
2022/09/18 02:39:19;;;;;;;11.73;2.47;;;8.70;99.90;;;;;;4228239;28;20441;-76
2022/09/18 02:41:32;;;;;;;13.97;2.47;;;8.70;99.90;;;;;;4227309;28;20465;-77
2022/09/18 02:43:43;;;;;;;12.33;2.30;;;8.70;99.90;;;;;;4228756;28;20456;-79
2022/09/18 02:45:51;;;;;;;11.37;2.60;;;8.70;99.90;;;;;;4228803;28;20452;-77
2022/09/18 02:48:18;;;;;;;10.13;2.20;;;8.70;99.90;;;;;;4232175;27;20689;-77
2022/09/18 02:50:29;;;;;;;11.27;2.33;;;8.70;99.90;;;;;;4216731;28;20535;-77
2022/09/18 02:52:34;;;;;;;13.00;1.97;;;8.70;99.90;;;;;;4224671;28;20449;-77
2022/09/18 02:54:41;;;;;;;11.00;2.20;;;8.70;99.90;;;;;;4230183;28;20453;-76
2022/09/18 02:56:49;;;;;;;8.37;1.63;;;8.70;99.90;;;;;;4217884;28;20451;-76
2022/09/18 02:58:55;;;;;;;10.83;2.00;;;8.70;99.90;;;;;;4229404;28;20794;-77
2022/09/18 03:01:00;;;;;;;6.33;2.20;;;8.70;99.90;;;;;;4210758;28;20542;-77
2022/09/18 03:03:02;;;;;;;10.57;2.20;;;8.70;99.90;;;;;;4253235;22;21088;-80
2022/09/18 03:05:05;;;;;;;8.10;1.83;;;8.60;99.90;;;;;;4230566;28;20865;-81
2022/09/18 03:07:07;;;;;;;14.67;2.13;;;8.70;99.90;;;;;;4213500;28;20469;-79
2022/09/18 03:09:11;;;;;;;10.20;1.70;;;8.60;99.90;;;;;;4209326;28;20558;-80
2022/09/18 03:11:14;;;;;;;13.67;1.80;;;8.60;99.90;;;;;;4212792;28;20495;-80
2022/09/18 03:13:16;;;;;;;12.83;1.67;;;8.60;99.90;;;;;;4226495;28;20549;-80
2022/09/18 03:15:18;;;;;;;6.37;1.90;;;8.70;99.90;;;;;;4226030;28;20454;-82
2022/09/18 03:17:20;;;;;;;13.70;1.87;;;8.60;99.90;;;;;;4204397;28;20902;-82
2022/09/18 03:19:22;;;;;;;12.77;2.20;;;8.60;99.90;;;;;;4222881;28;20496;-80
2022/09/18 03:21:25;;;;;;;9.60;1.90;;;8.60;99.90;;;;;;4213411;28;20538;-80
2022/09/18 03:23:27;;;;;;;16.07;2.37;;;8.60;99.90;;;;;;4206313;28;20475;-79
2022/09/18 03:25:30;;;;;;;9.60;1.90;;;8.60;99.90;;;;;;4199109;28;20447;-80
2022/09/18 03:27:32;;;;;;;6.67;1.73;;;8.60;99.90;;;;;;4206921;28;21015;-79
2022/09/18 03:29:33;;;;;;;12.23;1.90;;;8.60;99.90;;;;;;4215341;28;20921;-80
2022/09/18 03:31:35;;;;;;;15.10;1.60;;;8.60;99.90;;;;;;4222058;28;20462;-81
2022/09/18 03:33:37;;;;;;;14.60;2.00;;;8.60;99.90;;;;;;4221421;28;20892;-80
2022/09/18 03:35:39;;;;;;;10.03;2.30;;;8.60;99.90;;;;;;4223440;28;20446;-82
2022/09/18 03:37:41;;;;;;;13.13;2.47;;;8.50;99.90;;;;;;4221998;28;20892;-81
2022/09/18 03:39:43;;;;;;;13.40;2.00;;;8.60;99.90;;;;;;4203621;28;20580;-80
2022/09/18 03:41:46;;;;;;;11.67;2.10;;;8.60;99.90;;;;;;4221470;28;20477;-79
2022/09/18 03:43:48;;;;;;;14.03;2.30;;;8.60;99.90;;;;;;4221064;28;20502;-79
2022/09/18 03:45:50;;;;;;;8.27;2.07;;;8.60;99.90;;;;;;4223382;28;20906;-80
2022/09/18 03:47:52;;;;;;;7.67;1.90;;;8.50;99.90;;;;;;4206186;28;20452;-80
2022/09/18 03:49:54;;;;;;;9.97;2.33;;;8.60;99.90;;;;;;4201124;28;20511;-80
2022/09/18 03:51:56;;;;;;;10.80;2.03;;;8.50;99.90;;;;;;4203638;28;20507;-81
2022/09/18 03:53:58;;;;;;;9.37;2.67;;;8.40;99.90;;;;;;4201854;28;20534;-82
2022/09/18 03:56:00;;;;;;;14.13;2.67;;;8.50;99.90;;;;;;4207049;28;20485;-81
2022/09/18 03:58:03;;;;;;;10.17;1.97;;;8.50;99.90;;;;;;4224760;28;20467;-79
2022/09/18 04:00:06;;;;;;;7.37;2.00;;;8.50;99.90;;;;;;4202817;28;20891;-80
2022/09/18 04:02:08;;;;;;;17.77;2.97;;;8.50;99.90;;;;;;4219739;28;20518;-79
2022/09/18 04:04:10;;;;;;;14.00;2.60;;;8.50;99.90;;;;;;4205506;28;20456;-81
2022/09/18 04:06:11;;;;;;;10.70;2.47;;;8.40;99.90;;;;;;4206688;28;20481;-81
2022/09/18 04:08:13;;;;;;;12.40;2.37;;;8.40;99.90;;;;;;4202351;28;20487;-81
2022/09/18 04:10:15;;;;;;;8.40;2.23;;;8.40;99.90;;;;;;4224122;28;20998;-81
2022/09/18 04:12:17;;;;;;;6.27;2.20;;;8.40;99.90;;;;;;4220827;28;20569;-81
2022/09/18 04:14:21;;;;;;;12.83;2.20;;;8.40;99.90;;;;;;4208478;28;20452;-81
2022/09/18 04:16:23;;;;;;;11.90;2.20;;;8.40;99.90;;;;;;4224308;28;20455;-81
2022/09/18 04:18:25;;;;;;;13.47;2.60;;;8.30;99.90;;;;;;4209184;28;20464;-81
2022/09/18 04:20:30;;;;;;;15.47;2.40;;;8.30;99.90;;;;;;4225120;28;20993;-81
2022/09/18 04:22:32;;;;;;;7.03;2.10;;;8.30;99.90;;;;;;4201565;28;20555;-81
2022/09/18 04:24:38;;;;;;;10.03;2.40;;;8.30;99.90;;;;;;4227178;28;20504;-81
2022/09/18 04:26:40;;;;;;;8.43;2.43;;;8.30;99.90;;;;;;4221648;28;20457;-81
2022/09/18 04:28:42;;;;;;;13.40;2.50;;;8.30;99.90;;;;;;4224818;28;21020;-81
2022/09/18 04:30:46;;;;;;;9.37;1.97;;;8.20;99.90;;;;;;4226007;28;20480;-81
2022/09/18 04:32:48;;;;;;;15.73;2.83;;;8.30;99.90;;;;;;4204246;28;20484;-81
2022/09/18 04:34:50;;;;;;;10.87;2.40;;;8.30;99.90;;;;;;4205203;28;20495;-81
2022/09/18 04:36:52;;;;;;;6.50;2.27;;;8.30;99.90;;;;;;4223882;28;20903;-81
2022/09/18 04:38:53;;;;;;;10.00;2.47;;;8.30;99.90;;;;;;4221711;28;20461;-81
2022/09/18 04:40:56;;;;;;;10.57;2.70;;;8.20;99.90;;;;;;4225348;28;20478;-81
2022/09/18 04:42:58;;;;;;;15.50;2.47;;;8.20;99.90;;;;;;4224780;28;20527;-81
2022/09/18 04:45:00;;;;;;;11.43;2.90;;;8.20;99.90;;;;;;4206066;28;20450;-82
2022/09/18 04:47:05;;;;;;;9.23;2.30;;;8.20;99.90;;;;;;4205780;28;20798;-81
2022/09/18 04:49:07;;;;;;;14.47;2.60;;;8.20;99.90;;;;;;4230315;28;20451;-81
2022/09/18 04:51:09;;;;;;;11.00;2.33;;;8.20;99.90;;;;;;4232731;28;20491;-81
2022/09/18 04:53:11;;;;;;;9.67;1.93;;;8.20;99.90;;;;;;4218967;28;20468;-81
2022/09/18 04:55:13;;;;;;;6.77;2.37;;;8.20;99.90;;;;;;4214551;28;20530;-81
2022/09/18 04:57:15;;;;;;;11.70;2.47;;;8.20;99.90;;;;;;4233162;28;20461;-81
2022/09/18 04:59:17;;;;;;;18.93;3.00;;;8.20;99.90;;;;;;4226126;28;20464;-81
2022/09/18 05:01:19;;;;;;;14.73;2.57;;;8.20;99.90;;;;;;4226174;28;20454;-81
2022/09/18 05:03:23;;;;;;;7.23;2.33;;;8.20;99.90;;;;;;4207713;28;20579;-81
2022/09/18 05:05:25;;;;;;;7.13;1.73;;;8.20;99.90;;;;;;4223212;28;20501;-81
2022/09/18 05:07:26;;;;;;;13.70;2.30;;;8.30;99.90;;;;;;4222292;28;20450;-82
2022/09/18 05:09:28;;;;;;;12.33;2.20;;;8.20;99.90;;;;;;4203369;28;20463;-81
2022/09/18 05:11:30;;;;;;;14.43;2.63;;;8.30;99.90;;;;;;4205798;28;21019;-81
2022/09/18 05:13:32;;;;;;;12.13;2.30;;;8.30;99.90;;;;;;4207659;28;20471;-81
2022/09/18 05:15:34;;;;;;;8.30;2.50;;;8.30;99.90;;;;;;4222094;28;20546;-81
2022/09/18 05:17:38;;;;;;;11.33;2.47;;;8.30;99.90;;;;;;4221315;28;20811;-81
2022/09/18 05:19:41;;;;;;;8.67;2.43;;;8.40;99.90;;;;;;4224247;28;20458;-81
2022/09/18 05:21:43;;;;;;;13.73;2.30;;;8.40;99.90;;;;;;4201908;28;20448;-81
2022/09/18 05:23:45;;;;;;;9.70;2.53;;;8.30;99.90;;;;;;4224706;28;20296;-81
2022/09/18 05:25:47;;;;;;;11.07;1.80;;;8.30;99.90;;;;;;4206715;28;20875;-81
2022/09/18 05:27:56;;;;;;;12.43;2.13;;;8.30;99.90;;;;;;4206804;28;20458;-80
2022/09/18 05:29:58;;;;;;;11.03;1.70;;;8.40;99.90;;;;;;4225600;28;20513;-80
2022/09/18 05:32:00;;;;;;;7.30;2.00;;;8.40;99.90;;;;;;4223118;28;20474;-80
2022/09/18 05:34:02;;;;;;;11.93;1.97;;;8.40;99.90;;;;;;4205213;28;21041;-81
2022/09/18 05:36:06;;;;;;;8.37;2.03;;;8.40;99.90;;;;;;4221843;28;20955;-81
2022/09/18 05:38:08;;;;;;;9.50;2.17;;;8.40;99.90;;;;;;4219099;28;20450;-81
2022/09/18 05:40:10;;;;;;;15.93;2.10;;;8.40;99.90;;;;;;4222254;28;20473;-81
2022/09/18 05:42:12;;;;;;;9.13;2.40;;;8.50;99.90;;;;;;4211454;28;20529;-80
2022/09/18 05:44:14;;;;;;;7.47;1.70;;;8.50;99.90;;;;;;4204329;28;20543;-81
2022/09/18 05:46:16;;;;;;;8.80;2.13;;;8.50;99.90;;;;;;4225167;28;20487;-81
2022/09/18 05:48:18;;;;;;;13.83;2.57;;;8.60;99.90;;;;;;4207856;28;20464;-81
2022/09/18 05:50:20;;;;;;;11.93;2.70;;;8.60;99.90;;;;;;4209699;28;20249;-80
2022/09/18 05:52:23;;;;;;;11.10;2.70;;;8.50;99.90;;;;;;4224475;28;21132;-80
2022/09/18 05:54:25;;;;;;;14.30;2.77;;;8.60;99.90;;;;;;4223839;28;20986;-80
2022/09/18 05:56:27;;;;;;;10.20;2.40;;;8.60;99.90;;;;;;4207244;28;20221;-80
2022/09/18 05:58:29;;;;;;;13.07;3.10;;;8.60;99.90;;;;;;4226824;28;20442;-80
2022/09/18 06:00:35;;;;;;;6.50;1.67;;;8.60;99.90;;;;;;4220574;28;20227;-80
2022/09/18 06:02:36;;;;;;;7.87;2.33;;;8.70;99.90;;;;;;4206396;28;20476;-81
2022/09/18 06:04:38;;;;;;;12.70;2.47;;;8.70;99.90;;;;;;4226286;28;20896;-80
2022/09/18 06:06:40;;;;;;;6.07;1.90;;;8.80;99.90;;;;;;4208934;28;20489;-80
2022/09/18 06:08:44;;;;;;;6.90;1.80;;;8.70;99.90;;;;;;4225207;28;20458;-80
2022/09/18 06:10:46;;;;;;;12.40;1.97;;;8.70;99.90;;;;;;4201834;28;20926;-79
2022/09/18 06:12:47;;;;;;;8.97;1.70;;;8.70;99.90;;;;;;4210676;28;20503;-80
2022/09/18 06:14:49;;;;;;;8.47;1.97;;;8.80;99.90;;;;;;4226889;28;20200;-80
2022/09/18 06:16:51;;;;;;;9.20;2.10;;;8.70;99.90;;;;;;4228696;28;20454;-79
2022/09/18 06:18:53;;;;;;;9.93;1.63;;;8.70;99.90;;;;;;4213480;28;20460;-80
2022/09/18 06:20:57;;;;;;;8.20;2.10;;;8.70;99.90;;;;;;4219254;28;20467;-81
2022/09/18 06:23:00;;;;;;;9.30;2.20;;;8.70;99.90;;;;;;4202596;28;20226;-81
2022/09/18 06:25:04;;;;;;;12.27;1.90;;;8.80;99.90;;;;;;4209279;28;20464;-80
2022/09/18 06:27:06;;;;;;;11.40;2.10;;;8.80;99.90;;;;;;4212503;28;20474;-81
2022/09/18 06:29:08;;;;;;;6.50;1.90;;;8.80;99.90;;;;;;4227549;28;20470;-80
2022/09/18 06:31:10;;;;;;;9.20;2.40;;;8.80;99.90;;;;;;4210404;28;21251;-80
2022/09/18 06:33:12;;;;;;;8.63;1.97;;;8.80;99.90;;;;;;4207966;28;20533;-80
2022/09/18 06:35:14;;;;;;;11.60;2.30;;;8.80;99.90;;;;;;4203842;28;20531;-80
2022/09/18 06:37:16;;;;;;;7.63;1.77;;;8.80;99.90;;;;;;4209114;28;20511;-80
2022/09/18 06:39:18;;;;;;;6.93;1.80;;;8.80;99.90;;;;;;4210956;28;20459;-80
2022/09/18 06:41:23;;;;;;;8.30;1.70;;;8.80;99.90;;;;;;4228917;28;20665;-79
2022/09/18 06:43:26;;;;;;;6.30;1.77;;;8.90;99.90;;;;;;4224557;28;20877;-79
2022/09/18 06:45:28;;;;;;;10.53;2.17;;;8.90;99.90;;;;;;4228919;28;20215;-79
2022/09/18 06:47:30;;;;;;;6.93;1.70;;;8.90;99.90;;;;;;4215483;28;20551;-79
2022/09/18 06:49:32;;;;;;;11.93;2.17;;;8.90;99.90;;;;;;4232376;28;20446;-79
2022/09/18 06:51:34;;;;;;;6.63;1.47;;;8.90;99.90;;;;;;4221817;28;20467;-79
2022/09/18 06:53:36;;;;;;;5.97;1.70;;;8.90;99.90;;;;;;4222367;28;20481;-78
2022/09/18 06:55:38;;;;;;;8.40;1.63;;;8.90;99.90;;;;;;4223951;28;20212;-79
2022/09/18 06:57:41;;;;;;;8.80;1.67;;;9.00;99.90;;;;;;4223367;28;20541;-79
2022/09/18 06:59:43;;;;;;;7.97;1.60;;;8.90;99.90;;;;;;4205985;28;20471;-78
2022/09/18 07:01:47;;;;;;;10.27;1.83;;;9.30;99.90;;;;;;4222104;28;20958;-78
2022/09/18 07:03:49;;;;;;;9.03;1.73;;;9.00;99.90;;;;;;4205652;28;20205;-80
2022/09/18 07:05:51;;;;;;;6.30;2.03;;;9.00;99.90;;;;;;4205860;28;20466;-78
2022/09/18 07:07:53;;;;;;;9.33;2.00;;;9.00;99.90;;;;;;4225830;28;20461;-78
2022/09/18 07:09:55;;;;;;;6.70;1.47;;;9.00;99.90;;;;;;4205049;28;20464;-78
2022/09/18 07:11:58;;;;;;;9.77;1.80;;;9.10;99.90;;;;;;4223935;28;20573;-78
2022/09/18 07:14:01;;;;;;;9.27;1.90;;;9.10;99.90;;;;;;4203121;28;20220;-78
2022/09/18 07:16:03;;;;;;;6.73;1.53;;;9.10;99.90;;;;;;4221627;28;20506;-78
2022/09/18 07:18:06;;;;;;;4.57;1.60;;;9.10;99.90;;;;;;4222852;28;20446;-77
2022/09/18 07:20:09;;;;;;;6.23;2.13;;;9.10;99.90;;;;;;4224839;28;20458;-78
2022/09/18 07:22:11;;;;;;;10.80;2.47;;;9.20;99.90;;;;;;4198352;28;20221;-78
2022/09/18 07:24:13;;;;;;;6.47;1.87;;;9.20;99.90;;;;;;4202215;28;20229;-78
2022/09/18 07:26:15;;;;;;;6.87;1.80;;;9.20;99.90;;;;;;4206321;28;20447;-78
2022/09/18 07:28:17;;;;;;;7.57;1.80;;;9.30;99.90;;;;;;4220205;28;20224;-79
2022/09/18 07:30:21;;;;;;;9.50;1.97;;;9.30;99.90;;;;;;4201812;28;20233;-79
2022/09/18 07:32:23;;;;;;;8.00;1.60;;;9.40;99.90;;;;;;4203424;28;20355;-79
2022/09/18 07:34:25;;;;;;;5.40;1.90;;;9.40;99.90;;;;;;4220407;28;20205;-78
2022/09/18 07:36:27;;;;;;;9.93;2.00;;;9.50;99.90;;;;;;4203774;28;20267;-78
2022/09/18 07:38:29;;;;;;;13.10;2.27;;;9.50;99.90;;;;;;4202692;28;20689;-78
2022/09/18 07:40:31;;;;;;;10.73;2.00;;;9.60;99.90;;;;;;4201491;28;20202;-78
2022/09/18 07:42:33;;;;;;;9.60;2.30;;;9.90;99.90;;;;;;4222190;27;20228;-79
2022/09/18 07:44:35;;;;;;;9.57;1.70;;;9.60;99.90;;;;;;4203246;28;20215;-78
2022/09/18 07:46:38;;;;;;;6.87;1.70;;;9.70;99.90;;;;;;4218966;28;20205;-78
2022/09/18 07:48:40;;;;;;;12.97;1.70;;;9.80;99.90;;;;;;4221211;28;20241;-78
2022/09/18 07:50:42;;;;;;;5.17;1.50;;;9.80;99.90;;;;;;4200268;28;20363;-78
2022/09/18 07:52:51;;;;;;;7.27;1.80;;;9.80;99.90;;;;;;4221173;28;20230;-78
2022/09/18 07:54:53;;;;;;;4.93;1.40;;;9.90;99.90;;;;;;4222715;28;20204;-78
2022/09/18 07:56:55;;;;;;;3.73;1.53;;;9.90;99.90;;;;;;4199269;28;20258;-79
2022/09/18 07:58:57;;;;;;;9.90;1.80;;;10.00;99.90;;;;;;4217191;28;20285;-77
2022/09/18 08:01:01;;;;;;;13.53;1.87;;;10.00;99.90;;;;;;4205411;28;20589;-79
2022/09/18 08:03:05;;;;;;;7.80;1.60;;;10.00;99.90;;;;;;4203919;28;20236;-78
2022/09/18 08:05:08;;;;;;;7.37;1.63;;;10.10;99.90;;;;;;4205821;28;20202;-79
2022/09/18 08:07:10;;;;;;;5.67;1.30;;;10.20;99.90;;;;;;4206338;28;20305;-79
2022/09/18 08:09:15;;;;;;;6.63;1.57;;;10.20;99.90;;;;;;4204053;28;20215;-78
2022/09/18 08:11:17;;;;;;;9.30;1.90;;;10.60;99.90;;;;;;4203186;28;20757;-78
2022/09/18 08:13:19;;;;;;;9.70;1.40;;;10.30;99.90;;;;;;4221714;28;20318;-80
2022/09/18 08:15:21;;;;;;;5.43;1.67;;;10.40;99.90;;;;;;4217268;28;20488;-78
2022/09/18 08:17:23;;;;;;;9.23;1.73;;;10.40;99.90;;;;;;4215618;28;20249;-78
2022/09/18 08:19:26;;;;;;;7.23;1.40;;;10.40;99.90;;;;;;4210704;28;20683;-79
2022/09/18 08:21:31;;;;;;;4.43;1.30;;;10.50;99.90;;;;;;4217425;28;20252;-79
2022/09/18 08:23:33;;;;;;;3.13;1.43;;;10.50;99.90;;;;;;4224063;28;20259;-79
2022/09/18 08:25:36;;;;;;;11.43;1.93;;;10.60;99.90;;;;;;4221002;28;20292;-79
2022/09/18 08:27:38;;;;;;;4.30;1.33;;;10.70;99.90;;;;;;4198814;28;20209;-80
2022/09/18 08:29:41;;;;;;;7.57;1.60;;;10.70;99.90;;;;;;4219129;28;20267;-78
2022/09/18 08:31:43;;;;;;;10.47;2.27;;;10.80;99.90;;;;;;4204419;28;20239;-78
2022/09/18 08:33:45;;;;;;;4.80;1.40;;;10.90;99.90;;;;;;4220319;28;20202;-78
2022/09/18 08:35:48;;;;;;;4.73;1.30;;;10.90;99.90;;;;;;4220456;28;20209;-78
2022/09/18 08:37:50;;;;;;;6.20;1.50;;;11.00;99.90;;;;;;4222208;28;20712;-78
2022/09/18 08:39:52;;;;;;;6.33;1.33;;;11.10;99.90;;;;;;4201647;28;20693;-79
2022/09/18 08:42:07;;;;;;;3.23;1.03;;;11.10;99.90;;;;;;4211459;28;20250;-80
2022/09/18 08:44:12;;;;;;;12.47;1.60;;;11.20;99.90;;;;;;4217483;28;20203;-79
2022/09/18 08:46:18;;;;;;;3.73;1.33;;;11.30;99.90;;;;;;4198165;28;20213;-78
2022/09/18 08:48:24;;;;;;;6.93;1.30;;;11.30;99.90;;;;;;4218296;28;20230;-79
2022/09/18 08:50:29;;;;;;;4.63;1.33;;;11.40;99.90;;;;;;4222493;28;20268;-78
2022/09/18 08:52:38;;;;;;;6.73;1.50;;;11.40;99.90;;;;;;4202300;28;20331;-79
2022/09/18 08:54:48;;;;;;;6.70;1.57;;;11.50;99.90;;;;;;4219212;28;20247;-78
2022/09/18 08:56:52;;;;;;;7.77;1.90;;;11.50;99.90;;;;;;4222722;28;20238;-78
2022/09/18 08:58:56;;;;;;;6.73;1.20;;;11.50;99.90;;;;;;4206802;28;20243;-78
2022/09/18 09:01:01;;;;;;;4.13;1.47;;;11.50;99.90;;;;;;4224754;28;20581;-78
2022/09/18 09:03:20;;;;;;;4.80;1.40;;;11.60;99.90;;;;;;4201920;28;20772;-77
2022/09/18 09:05:27;;;;;;;4.43;1.17;;;11.70;99.90;;;;;;4222693;28;20243;-78
2022/09/18 09:08:05;;;;;;;5.17;1.10;;;11.70;99.90;;;;;;4217085;28;20391;-77
2022/09/18 09:10:30;;;;;;;7.90;1.33;;;11.70;99.90;;;;;;4221172;28;20198;-77
2022/09/18 09:12:43;;;;;;;3.33;1.00;;;11.70;99.90;;;;;;4204906;28;20712;-77
2022/09/18 09:15:03;;;;;;;6.57;1.20;;;11.70;99.90;;;;;;4205651;28;20215;-77
2022/09/18 09:17:14;;;;;;;6.97;1.30;;;11.80;99.90;;;;;;4223732;28;20242;-79
2022/09/18 09:19:30;;;;;;;3.10;1.00;;;11.80;99.90;;;;;;4223700;28;20298;-77
2022/09/18 09:21:49;;;;;;;7.27;1.20;;;11.90;99.90;;;;;;4222255;28;20197;-77
2022/09/18 09:24:19;;;;;;;8.03;1.23;;;11.80;99.90;;;;;;4222353;28;20680;-78
2022/09/18 09:26:23;;;;;;;3.67;0.93;;;11.90;99.90;;;;;;4203933;28;20242;-77
2022/09/18 09:28:29;;;;;;;5.30;1.00;;;11.90;99.90;;;;;;4222024;28;20261;-78
2022/09/18 09:30:34;;;;;;;8.57;1.20;;;11.90;99.90;;;;;;4223102;28;20189;-78
2022/09/18 09:32:40;;;;;;;5.37;1.17;;;11.90;99.90;;;;;;4204630;28;20232;-77
2022/09/18 09:34:48;;;;;;;4.27;1.00;;;12.00;99.90;;;;;;4203201;28;20224;-77
2022/09/18 09:36:53;;;;;;;7.03;1.13;;;12.00;99.90;;;;;;4203064;28;20207;-78
2022/09/18 09:39:00;;;;;;;5.50;1.00;;;12.00;99.90;;;;;;4218633;28;20299;-77
2022/09/18 09:41:12;;;;;;;4.90;1.10;;;12.00;99.90;;;;;;4222090;28;20231;-77
2022/09/18 09:43:24;;;;;;;7.07;1.20;;;12.10;99.90;;;;;;4221767;28;20634;-77
2022/09/18 09:45:30;;;;;;;4.80;0.93;;;12.10;99.90;;;;;;4221955;28;20203;-77
2022/09/18 09:47:37;;;;;;;5.83;1.10;;;12.10;99.90;;;;;;4218363;28;20238;-77
2022/09/18 09:49:50;;;;;;;4.33;0.90;;;12.20;99.90;;;;;;4202715;28;20201;-77
2022/09/18 09:52:00;;;;;;;1.53;0.70;;;12.20;99.90;;;;;;4221764;28;20303;-78
2022/09/18 09:54:03;;;;;;;3.60;0.77;;;12.20;99.90;;;;;;4221052;28;20291;-77
2022/09/18 09:56:21;;;;;;;3.73;0.70;;;12.20;99.90;;;;;;4218993;28;20298;-77
2022/09/18 09:58:38;;;;;;;3.97;1.00;;;12.30;99.90;;;;;;4205432;28;20290;-78
2022/09/18 10:00:48;;;;;;;6.43;0.80;;;12.30;99.90;;;;;;4219624;28;20289;-78
2022/09/18 10:03:28;;;;;;;3.67;0.70;;;12.40;99.90;;;;;;4216246;28;20219;-78
2022/09/18 10:05:38;;;;;;;4.23;0.70;;;12.50;99.90;;;;;;4221300;28;20283;-77
2022/09/18 10:07:46;;;;;;;3.07;0.70;;;12.60;99.90;;;;;;4222461;28;20247;-79
2022/09/18 10:09:55;;;;;;;4.60;1.00;;;12.70;99.90;;;;;;4222487;28;20323;-81
2022/09/18 10:12:02;;;;;;;2.73;0.70;;;12.80;99.90;;;;;;4216784;28;20313;-76
2022/09/18 10:14:12;;;;;;;5.50;1.57;;;12.90;99.90;;;;;;4201700;28;20220;-77
2022/09/18 10:16:19;;;;;;;5.87;1.10;;;13.00;99.90;;;;;;4205829;28;20238;-79
2022/09/18 10:18:25;;;;;;;2.97;0.77;;;13.10;99.90;;;;;;4222630;28;20200;-78
2022/09/18 10:20:29;;;;;;;5.17;0.90;;;13.10;99.90;;;;;;4206565;28;20202;-75
2022/09/18 10:22:33;;;;;;;3.90;1.03;;;13.20;99.90;;;;;;4228170;28;20614;-77
2022/09/18 10:24:43;;;;;;;1.60;0.70;;;13.20;99.90;;;;;;4213839;28;20204;-77
2022/09/18 10:26:50;;;;;;;1.77;0.60;;;13.20;99.90;;;;;;4224408;28;20602;-77
2022/09/18 10:28:52;;;;;;;3.70;0.90;;;13.20;99.90;;;;;;4224896;28;20200;-77
2022/09/18 10:31:08;;;;;;;5.33;0.80;;;13.20;99.90;;;;;;4223538;28;20631;-76
2022/09/18 10:33:31;;;;;;;3.70;1.00;;;13.20;99.90;;;;;;4225889;28;20225;-79
2022/09/18 10:35:44;;;;;;;2.37;0.80;;;13.30;99.90;;;;;;4203012;28;20209;-79
2022/09/18 10:37:47;;;;;;;4.03;1.10;;;13.30;99.90;;;;;;4219346;28;20740;-78
2022/09/18 10:39:56;;;;;;;5.33;0.87;;;13.30;99.90;;;;;;4227314;28;20209;-76
2022/09/18 10:42:02;;;;;;;3.43;1.20;;;13.30;99.90;;;;;;4224256;28;20228;-78
2022/09/18 10:44:23;;;;;;;3.60;1.10;;;13.30;99.90;;;;;;4207578;28;20235;-78
2022/09/18 10:46:28;;;;;;;6.60;0.90;;;13.40;99.90;;;;;;4212616;28;20220;-78
2022/09/18 10:48:32;;;;;;;2.30;0.70;;;13.40;99.90;;;;;;4203507;28;20232;-77
2022/09/18 10:50:36;;;;;;;3.20;0.90;;;13.50;99.90;;;;;;4213973;28;20623;-79
2022/09/18 10:52:39;;;;;;;2.80;0.77;;;13.60;99.90;;;;;;4202868;28;20662;-79
2022/09/18 10:54:41;;;;;;;3.20;0.80;;;13.60;99.90;;;;;;4212721;28;20196;-77
2022/09/18 10:56:42;;;;;;;0.93;0.50;;;13.70;99.90;;;;;;4220155;28;20213;-76
2022/09/18 10:58:46;;;;;;;2.57;0.60;;;13.90;99.90;;;;;;4200069;28;20322;-77
2022/09/18 11:00:52;;;;;;;5.53;1.00;;;13.80;99.90;;;;;;4214416;28;20208;-77
2022/09/18 11:02:57;;;;;;;1.73;0.70;;;13.80;99.90;;;;;;4200760;28;20345;-77
2022/09/18 11:05:02;;;;;;;2.97;0.80;;;13.80;99.90;;;;;;4216951;28;20289;-77
2022/09/18 11:07:06;;;;;;;3.77;1.00;;;13.90;99.90;;;;;;4224528;28;20224;-77